CheckWX is a tool to help pilots better visualize weather data.  It is not intended as a substitute for an official pre-flight weather briefing.

19:57:26 UTC

KFWN METAR
Sussex Airport
Sussex, New Jersey, USA
Current

1 hour ago

KFWN 251853Z AUTO VRB04KT 10SM SCT033 BKN044 29/23 A2983 RMK AO2 SLP098 T02890228
Observed
Jun-25 @ 18:53 UTC
Wind
  • Variable at 4 KTS
Visibility
10 SM
Flight Rules
VFR
Cloud Levels
  • Scattered at 3,300' AGL
  • Broken at 4,400' AGL
Temperature
29°C / 84°F
Dewpoint
23°C / 73°F
Heat Index
32°C / 90°F
Humidity
70%
Altimeter
29.83" Hg
Pressure
1010.12 hPa
Previous

2 hours ago

KFWN 251753Z AUTO VRB03KT 10SM FEW024 BKN036 28/23 A2984 RMK AO2 SLP103 60005 T02780228 10283 20217 53003
Observed
Jun-25 @ 17:53 UTC
Wind
  • Variable at 3 KTS
Visibility
10 SM
Flight Rules
VFR
Cloud Levels
  • Few at 2,400' AGL
  • Broken at 3,600' AGL
Temperature
28°C / 82°F
Dewpoint
23°C / 73°F
Heat Index
31°C / 87°F
Humidity
74%
Altimeter
29.84" Hg
Pressure
1010.52 hPa
Previous

2 hours ago

KFWN 251732Z AUTO 19005KT 10SM SCT022 BKN032 OVC041 26/23 A2984 RMK AO2 T02610228
Observed
Jun-25 @ 17:32 UTC
Wind
  • 190° at 5 KTS
Visibility
10 SM
Flight Rules
VFR
Cloud Levels
  • Scattered at 2,200' AGL
  • Broken at 3,200' AGL
  • Overcast at 4,100' AGL
Temperature
26°C / 79°F
Dewpoint
23°C / 73°F
Humidity
84%
Altimeter
29.84" Hg
Pressure
1010.52 hPa